Time;durP1;ratioP1;P1;durP2;ratioP2;P2;SDS_P1;SDS_P2;PMS_P1;PMS_P2;Temp;Humidity;BMP_temperature;BMP_pressure;BME280_temperature;BME280_humidity;BME280_pressure;Samples;Min_cycle;Max_cycle;Signal;HPM_P1;HPM_P2
2023/07/27 00:08:33;;;;;;;;;0.00;0.00;;;;;;;;2;239332650;239332650;-77
2023/07/27 00:16:40;;;;;;;;;1.00;1.00;;;;;;;;2;257061779;257061779;-79
2023/07/27 00:25:19;;;;;;;;;0.50;0.50;;;;;;;;2;239927639;239927639;-78
2023/07/27 00:33:33;;;;;;;;;1.00;1.00;;;;;;;;2;260433988;260433988;-78
2023/07/27 00:42:15;;;;;;;;;0.50;0.50;;;;;;;;2;242951317;242951317;-81
2023/07/27 00:50:31;;;;;;;;;0.50;0.50;;;;;;;;2;260564426;260564426;-77
2023/07/27 00:59:13;;;;;;;;;0.00;0.00;;;;;;;;2;242900579;242900579;-80
2023/07/27 01:07:27;;;;;;;;;1.00;1.00;;;;;;;;2;260109416;260109416;-77
2023/07/27 01:16:12;;;;;;;;;4.50;0.50;;;;;;;;2;242706103;242706103;-77
2023/07/27 01:24:37;;;;;;;;;0.50;0.50;;;;;;;;2;260572405;260572405;-77
2023/07/27 01:33:22;;;;;;;;;0.50;0.50;;;;;;;;2;242365449;242365449;-76
2023/07/27 01:41:41;;;;;;;;;0.50;0.50;;;;;;;;2;260802793;260802793;-76
2023/07/27 01:50:22;;;;;;;;;0.50;0.50;;;;;;;;2;242194446;242194446;-77
2023/07/27 01:58:37;;;;;;;;;0.50;0.50;;;;;;;;2;260498554;260498554;-78
2023/07/27 02:07:18;;;;;;;;;0.00;0.00;;;;;;;;2;242834395;242834395;-76
2023/07/27 02:15:36;;;;;;;;;0.00;0.00;;;;;;;;2;260374478;260374478;-76
2023/07/27 02:24:10;;;;;;;;;0.50;0.50;;;;;;;;2;238739179;238739179;-75
2023/07/27 02:32:18;;;;;;;;;0.00;0.00;;;;;;;;2;257276175;257276175;-77
2023/07/27 02:40:52;;;;;;;;;0.00;0.00;;;;;;;;2;239083953;239083953;-80
2023/07/27 02:49:01;;;;;;;;;0.00;0.00;;;;;;;;2;257455521;257455521;-80
2023/07/27 02:57:38;;;;;;;;;0.00;0.00;;;;;;;;2;240524906;240524906;-79
2023/07/27 03:05:46;;;;;;;;;0.00;0.00;;;;;;;;2;257035572;257035572;-78
2023/07/27 03:14:21;;;;;;;;;0.00;0.00;;;;;;;;2;240110726;240110726;-82
2023/07/27 03:22:30;;;;;;;;;9.50;1.50;;;;;;;;2;257066281;257066281;-84
2023/07/27 03:31:14;;;;;;;;;0.00;0.00;;;;;;;;2;239121912;239121912;-76
2023/07/27 03:39:22;;;;;;;;;1.00;1.00;;;;;;;;2;258134264;258134264;-79
2023/07/27 03:47:57;;;;;;;;;0.00;0.00;;;;;;;;2;239030222;239030222;-79
2023/07/27 03:56:07;;;;;;;;;0.00;0.00;;;;;;;;2;257265740;257265740;-80
2023/07/27 04:04:42;;;;;;;;;0.00;0.00;;;;;;;;2;240733174;240733174;-76
2023/07/27 04:12:50;;;;;;;;;0.00;0.00;;;;;;;;2;256806875;256806875;-76
2023/07/27 04:21:26;;;;;;;;;1.50;1.50;;;;;;;;2;239306252;239306252;-77
2023/07/27 04:29:35;;;;;;;;;0.00;0.00;;;;;;;;2;257506076;257506076;-77
2023/07/27 04:38:09;;;;;;;;;0.00;0.00;;;;;;;;2;239772030;239772030;-77
2023/07/27 04:46:17;;;;;;;;;0.50;0.50;;;;;;;;2;258070587;258070587;-76
2023/07/27 04:54:53;;;;;;;;;0.00;0.00;;;;;;;;2;239761818;239761818;-76
2023/07/27 05:03:02;;;;;;;;;0.00;0.00;;;;;;;;2;257871692;257871692;-76
2023/07/27 05:11:37;;;;;;;;;0.50;0.50;;;;;;;;2;239871598;239871598;-75
2023/07/27 05:19:46;;;;;;;;;0.00;0.00;;;;;;;;2;257431671;257431671;-76
2023/07/27 05:28:22;;;;;;;;;0.50;0.50;;;;;;;;2;240244950;240244950;-77
2023/07/27 05:36:31;;;;;;;;;0.00;0.00;;;;;;;;2;257190737;257190737;-77
2023/07/27 05:45:07;;;;;;;;;12.00;1.00;;;;;;;;2;239873137;239873137;-77
2023/07/27 05:53:17;;;;;;;;;0.50;0.50;;;;;;;;2;257737315;257737315;-77
2023/07/27 06:01:54;;;;;;;;;0.00;0.00;;;;;;;;2;239936616;239936616;-76
2023/07/27 06:10:03;;;;;;;;;0.00;0.00;;;;;;;;2;257811256;257811256;-76
2023/07/27 06:18:39;;;;;;;;;0.00;0.00;;;;;;;;2;240327919;240327919;-78
2023/07/27 06:26:48;;;;;;;;;0.00;0.00;;;;;;;;2;257693062;257693062;-76
2023/07/27 06:35:24;;;;;;;;;0.00;0.00;;;;;;;;2;239622555;239622555;-76
2023/07/27 06:43:33;;;;;;;;;0.00;0.00;;;;;;;;2;257979417;257979417;-77
2023/07/27 06:52:09;;;;;;;;;0.00;0.00;;;;;;;;2;239578657;239578657;-77
2023/07/27 07:00:18;;;;;;;;;0.00;0.00;;;;;;;;2;257600371;257600371;-77
2023/07/27 07:08:53;;;;;;;;;1.00;1.00;;;;;;;;2;240714037;240714037;-76
2023/07/27 07:17:02;;;;;;;;;0.00;0.00;;;;;;;;2;257459167;257459167;-79
2023/07/27 07:25:40;;;;;;;;;0.00;0.00;;;;;;;;2;239989164;239989164;-79
2023/07/27 07:33:48;;;;;;;;;1.00;1.00;;;;;;;;2;257479495;257479495;-80
2023/07/27 07:42:23;;;;;;;;;0.50;0.50;;;;;;;;2;240132172;240132172;-81
2023/07/27 07:50:20;;;;;;;;;0.00;0.00;;;;;;;;2;257081205;257081205;-80
2023/07/27 07:58:26;;;;;;;;;0.50;0.50;;;;;;;;2;226404765;226404765;-77
2023/07/27 08:06:12;;;;;;;;;0.50;0.50;;;;;;;;2;245573497;245573497;-78
2023/07/27 08:14:16;;;;;;;;;0.50;0.50;;;;;;;;2;226719082;226719082;-78
2023/07/27 08:22:21;;;;;;;;;0.50;0.50;;;;;;;;2;252721247;252721247;-78
2023/07/27 08:30:58;;;;;;;;;0.50;0.50;;;;;;;;2;239977807;239977807;-80
2023/07/27 08:39:08;;;;;;;;;1.00;1.00;;;;;;;;2;257700219;257700219;-79
2023/07/27 08:47:44;;;;;;;;;2.00;2.00;;;;;;;;2;240295149;240295149;-77
2023/07/27 08:55:53;;;;;;;;;0.50;0.50;;;;;;;;2;257819996;257819996;-76
2023/07/27 09:04:27;;;;;;;;;1.00;1.00;;;;;;;;2;238647928;238647928;-77
2023/07/27 09:12:37;;;;;;;;;0.50;0.50;;;;;;;;2;257689336;257689336;-75
2023/07/27 09:21:15;;;;;;;;;0.00;0.00;;;;;;;;2;239881332;239881332;-82
2023/07/27 09:29:26;;;;;;;;;0.00;0.00;;;;;;;;2;258252691;258252691;-83
2023/07/27 09:38:02;;;;;;;;;0.00;0.00;;;;;;;;2;240050225;240050225;-82
2023/07/27 09:46:11;;;;;;;;;0.50;0.50;;;;;;;;2;258065249;258065249;-82
2023/07/27 09:54:49;;;;;;;;;0.00;0.00;;;;;;;;2;239168743;239168743;-86
2023/07/27 10:02:59;;;;;;;;;1.00;1.00;;;;;;;;2;258485279;258485279;-84
2023/07/27 10:11:54;;;;;;;;;0.00;0.00;;;;;;;;2;240119662;240119662;-82
2023/07/27 10:20:19;;;;;;;;;0.00;0.00;;;;;;;;2;257632397;257632397;-85
2023/07/27 10:28:56;;;;;;;;;1.00;1.00;;;;;;;;2;240488745;240488745;-80
2023/07/27 10:37:08;;;;;;;;;3.50;0.50;;;;;;;;2;258284802;258284802;-80
2023/07/27 10:45:51;;;;;;;;;0.00;0.00;;;;;;;;2;240260832;240260832;-80
2023/07/27 10:54:01;;;;;;;;;0.50;0.50;;;;;;;;2;258564251;258564251;-81
2023/07/27 11:02:39;;;;;;;;;0.50;0.50;;;;;;;;2;240500041;240500041;-79
2023/07/27 11:10:49;;;;;;;;;1.00;1.00;;;;;;;;2;258181768;258181768;-82
2023/07/27 11:19:27;;;;;;;;;0.00;0.00;;;;;;;;2;239877211;239877211;-86
2023/07/27 11:27:38;;;;;;;;;0.00;0.00;;;;;;;;2;258383204;258383204;-86
2023/07/27 11:36:13;;;;;;;;;0.00;0.00;;;;;;;;2;239345392;239345392;-81
2023/07/27 11:44:23;;;;;;;;;0.50;0.50;;;;;;;;2;258158297;258158297;-81
2023/07/27 11:53:02;;;;;;;;;1.00;1.00;;;;;;;;2;240900019;240900019;-81
2023/07/27 12:01:12;;;;;;;;;1.00;1.00;;;;;;;;2;258662692;258662692;-81
2023/07/27 12:09:49;;;;;;;;;1.00;1.00;;;;;;;;2;240081422;240081422;-80
2023/07/27 12:17:59;;;;;;;;;0.00;0.00;;;;;;;;2;257510957;257510957;-79
2023/07/27 12:26:37;;;;;;;;;1.50;1.50;;;;;;;;2;240367625;240367625;-79
2023/07/27 12:34:46;;;;;;;;;1.50;1.50;;;;;;;;2;257897265;257897265;-79
2023/07/27 12:43:22;;;;;;;;;1.00;1.00;;;;;;;;2;240638056;240638056;-80
2023/07/27 12:51:32;;;;;;;;;0.50;0.50;;;;;;;;2;258281862;258281862;-81
2023/07/27 13:00:09;;;;;;;;;1.50;1.50;;;;;;;;2;240271404;240271404;-80
2023/07/27 13:08:19;;;;;;;;;1.50;1.50;;;;;;;;2;258454243;258454243;-83
2023/07/27 13:16:55;;;;;;;;;0.00;0.00;;;;;;;;2;240888573;240888573;-83
2023/07/27 13:25:05;;;;;;;;;1.00;1.00;;;;;;;;2;257510815;257510815;-88
2023/07/27 13:33:41;;;;;;;;;1.00;1.00;;;;;;;;2;239918920;239918920;-87
2023/07/27 13:41:51;;;;;;;;;0.00;0.00;;;;;;;;2;258040862;258040862;-89
2023/07/27 13:50:29;;;;;;;;;0.50;0.50;;;;;;;;2;240925836;240925836;-88
2023/07/27 13:58:39;;;;;;;;;1.50;1.50;;;;;;;;2;257589958;257589958;-85
2023/07/27 14:07:15;;;;;;;;;0.50;0.50;;;;;;;;2;240261361;240261361;-85
2023/07/27 14:15:23;;;;;;;;;4.00;4.00;;;;;;;;2;256511320;256511320;-85
2023/07/27 14:23:58;;;;;;;;;1.00;1.00;;;;;;;;2;239052183;239052183;-87
2023/07/27 14:32:11;;;;;;;;;2.00;2.00;;;;;;;;2;259088758;259088758;-75
2023/07/27 14:40:54;;;;;;;;;6.00;6.00;;;;;;;;2;243074076;243074076;-75
2023/07/27 14:49:09;;;;;;;;;1.50;1.50;;;;;;;;2;261081505;261081505;-74
2023/07/27 14:57:52;;;;;;;;;2.50;2.50;;;;;;;;2;243073409;243073409;-75
2023/07/27 15:06:07;;;;;;;;;1.00;1.00;;;;;;;;2;261079864;261079864;-75
2023/07/27 15:14:50;;;;;;;;;1.50;1.50;;;;;;;;2;243073745;243073745;-76
2023/07/27 15:23:05;;;;;;;;;3.50;3.50;;;;;;;;2;261078768;261078768;-74
2023/07/27 15:31:48;;;;;;;;;7.50;7.50;;;;;;;;2;243071710;243071710;-75
2023/07/27 15:40:04;;;;;;;;;5.00;2.00;;;;;;;;2;261076937;261076937;-74
2023/07/27 15:52:06;;;;;;;;;1.00;1.00;;;;;;;;2;243071295;243071295;-74
2023/07/27 16:00:21;;;;;;;;;1.00;1.00;;;;;;;;2;261075998;261075998;-75
2023/07/27 16:09:03;;;;;;;;;2.00;2.00;;;;;;;;2;243057576;243057576;-79
2023/07/27 16:17:19;;;;;;;;;1.00;1.00;;;;;;;;2;261059276;261059276;-74
2023/07/27 16:26:02;;;;;;;;;3.50;3.50;;;;;;;;2;243055775;243055775;-73
2023/07/27 16:34:18;;;;;;;;;5.50;5.50;;;;;;;;2;261061798;261061798;-72
2023/07/27 16:43:00;;;;;;;;;0.00;0.00;;;;;;;;2;243073011;243073011;-73
2023/07/27 16:51:16;;;;;;;;;5.00;5.00;;;;;;;;2;261075931;261075931;-73
2023/07/27 16:59:58;;;;;;;;;1.00;1.00;;;;;;;;2;243073584;243073584;-76
2023/07/27 17:08:13;;;;;;;;;6.00;6.00;;;;;;;;2;261079246;261079246;-75
2023/07/27 17:16:56;;;;;;;;;6.00;6.00;;;;;;;;2;243072687;243072687;-74
2023/07/27 17:25:11;;;;;;;;;2.00;2.00;;;;;;;;2;261079098;261079098;-76
2023/07/27 17:33:54;;;;;;;;;0.50;0.50;;;;;;;;2;243076319;243076319;-75
2023/07/27 17:42:09;;;;;;;;;3.00;3.00;;;;;;;;2;261081154;261081154;-76
2023/07/27 17:50:58;;;;;;;;;13.00;4.00;;;;;;;;2;243072943;243072943;-78
2023/07/27 17:59:14;;;;;;;;;1.50;1.50;;;;;;;;2;261079178;261079178;-76
2023/07/27 18:07:57;;;;;;;;;0.50;0.50;;;;;;;;2;243074830;243074830;-75
2023/07/27 18:16:13;;;;;;;;;0.50;0.50;;;;;;;;2;261081596;261081596;-75
2023/07/27 18:24:55;;;;;;;;;1.50;1.50;;;;;;;;2;243075630;243075630;-76
2023/07/27 18:33:11;;;;;;;;;1.00;1.00;;;;;;;;2;261077635;261077635;-74
2023/07/27 18:41:53;;;;;;;;;1.50;1.50;;;;;;;;2;243077083;243077083;-75
2023/07/27 18:50:10;;;;;;;;;3.50;3.50;;;;;;;;2;261080044;261080044;-77
2023/07/27 18:58:52;;;;;;;;;1.00;1.00;;;;;;;;2;243073103;243073103;-76
2023/07/27 19:07:07;;;;;;;;;0.50;0.50;;;;;;;;2;261076115;261076115;-75
2023/07/27 19:15:51;;;;;;;;;2.00;2.00;;;;;;;;2;243073767;243073767;-75
2023/07/27 19:24:07;;;;;;;;;0.00;0.00;;;;;;;;2;261078578;261078578;-78
2023/07/27 19:32:49;;;;;;;;;0.00;0.00;;;;;;;;2;243073408;243073408;-70
2023/07/27 19:41:05;;;;;;;;;1.50;1.50;;;;;;;;2;261076614;261076614;-70
2023/07/27 19:49:47;;;;;;;;;4.00;4.00;;;;;;;;2;243075648;243075648;-71
2023/07/27 19:58:03;;;;;;;;;3.00;3.00;;;;;;;;2;261079055;261079055;-70
2023/07/27 20:06:45;;;;;;;;;1.50;1.50;;;;;;;;2;243074815;243074815;-70
2023/07/27 20:15:01;;;;;;;;;1.00;1.00;;;;;;;;2;261080568;261080568;-70
2023/07/27 20:23:43;;;;;;;;;3.00;3.00;;;;;;;;2;243072709;243072709;-70
2023/07/27 20:31:59;;;;;;;;;1.50;1.50;;;;;;;;2;261079365;261079365;-70
2023/07/27 20:40:41;;;;;;;;;3.50;3.50;;;;;;;;2;243075642;243075642;-70
2023/07/27 20:48:56;;;;;;;;;4.00;1.00;;;;;;;;2;261077237;261077237;-70
2023/07/27 20:57:39;;;;;;;;;1.00;1.00;;;;;;;;2;243073085;243073085;-70
2023/07/27 21:05:54;;;;;;;;;1.50;1.50;;;;;;;;2;261082605;261082605;-70
2023/07/27 21:14:36;;;;;;;;;1.50;1.50;;;;;;;;2;243073307;243073307;-70
2023/07/27 21:22:52;;;;;;;;;3.00;3.00;;;;;;;;2;261080242;261080242;-70
2023/07/27 21:31:34;;;;;;;;;0.50;0.50;;;;;;;;2;243076309;243076309;-70
2023/07/27 21:39:50;;;;;;;;;5.50;2.50;;;;;;;;2;261079487;261079487;-70
2023/07/27 21:48:33;;;;;;;;;0.00;0.00;;;;;;;;2;243070348;243070348;-70
2023/07/27 21:56:48;;;;;;;;;0.50;0.50;;;;;;;;2;261076491;261076491;-69
2023/07/27 22:05:31;;;;;;;;;6.00;3.00;;;;;;;;2;243071879;243071879;-67
2023/07/27 22:13:46;;;;;;;;;1.00;1.00;;;;;;;;2;261078791;261078791;-68
2023/07/27 22:22:29;;;;;;;;;2.00;2.00;;;;;;;;2;243076184;243076184;-67
2023/07/27 22:30:45;;;;;;;;;3.00;1.00;;;;;;;;2;261080263;261080263;-68
2023/07/27 22:39:30;;;;;;;;;1.00;1.00;;;;;;;;2;243075015;243075015;-67
2023/07/27 22:47:46;;;;;;;;;0.00;0.00;;;;;;;;2;261080163;261080163;-67
2023/07/27 22:56:28;;;;;;;;;1.00;1.00;;;;;;;;2;243072758;243072758;-68
2023/07/27 23:04:44;;;;;;;;;0.50;0.50;;;;;;;;2;261080931;261080931;-69
2023/07/27 23:13:27;;;;;;;;;0.50;0.50;;;;;;;;2;243075908;243075908;-69
2023/07/27 23:21:42;;;;;;;;;1.00;1.00;;;;;;;;2;261082600;261082600;-69
2023/07/27 23:30:25;;;;;;;;;0.50;0.50;;;;;;;;2;243073140;243073140;-68
2023/07/27 23:38:40;;;;;;;;;4.50;1.50;;;;;;;;2;261078351;261078351;-70
2023/07/27 23:47:22;;;;;;;;;0.50;0.50;;;;;;;;2;243074835;243074835;-68
2023/07/27 23:55:38;;;;;;;;;2.50;2.50;;;;;;;;2;261080244;261080244;-68
